sensor_id;sensor_type;location;lat;lon;timestamp;temperature;humidity
4725;DHT22;2376;53.544;10.226;2023-12-28T00:00:06;6.90;99.90
4725;DHT22;2376;53.544;10.226;2023-12-28T00:02:34;6.90;99.90
4725;DHT22;2376;53.544;10.226;2023-12-28T00:05:01;6.90;99.90
4725;DHT22;2376;53.544;10.226;2023-12-28T00:07:28;6.90;99.90
4725;DHT22;2376;53.544;10.226;2023-12-28T00:09:54;7.00;99.90
4725;DHT22;2376;53.544;10.226;2023-12-28T00:12:21;7.00;99.90
4725;DHT22;2376;53.544;10.226;2023-12-28T00:14:48;7.00;99.90
4725;DHT22;2376;53.544;10.226;2023-12-28T00:17:15;7.10;99.90
4725;DHT22;2376;53.544;10.226;2023-12-28T00:19:43;7.10;99.90
4725;DHT22;2376;53.544;10.226;2023-12-28T00:22:09;7.10;99.90
4725;DHT22;2376;53.544;10.226;2023-12-28T00:24:36;7.20;99.90
4725;DHT22;2376;53.544;10.226;2023-12-28T00:27:03;7.20;99.90
4725;DHT22;2376;53.544;10.226;2023-12-28T00:29:29;7.20;99.90
4725;DHT22;2376;53.544;10.226;2023-12-28T00:31:57;7.20;99.90
4725;DHT22;2376;53.544;10.226;2023-12-28T00:34:25;7.20;99.90
4725;DHT22;2376;53.544;10.226;2023-12-28T00:36:53;7.30;99.90
4725;DHT22;2376;53.544;10.226;2023-12-28T00:39:19;7.30;99.90
4725;DHT22;2376;53.544;10.226;2023-12-28T00:41:46;7.30;99.90
4725;DHT22;2376;53.544;10.226;2023-12-28T00:44:12;7.30;99.90
4725;DHT22;2376;53.544;10.226;2023-12-28T00:46:39;7.30;99.90
4725;DHT22;2376;53.544;10.226;2023-12-28T00:49:06;7.40;99.90
4725;DHT22;2376;53.544;10.226;2023-12-28T00:51:33;7.40;99.90
4725;DHT22;2376;53.544;10.226;2023-12-28T00:54:01;7.40;99.90
4725;DHT22;2376;53.544;10.226;2023-12-28T00:56:28;7.40;99.90
4725;DHT22;2376;53.544;10.226;2023-12-28T00:58:54;7.40;99.90
4725;DHT22;2376;53.544;10.226;2023-12-28T01:01:21;7.50;99.90
4725;DHT22;2376;53.544;10.226;2023-12-28T01:03:48;7.50;99.90
4725;DHT22;2376;53.544;10.226;2023-12-28T01:06:14;7.50;99.90
4725;DHT22;2376;53.544;10.226;2023-12-28T01:08:41;7.50;99.90
4725;DHT22;2376;53.544;10.226;2023-12-28T01:11:10;7.50;99.90
4725;DHT22;2376;53.544;10.226;2023-12-28T01:13:37;7.50;99.90
4725;DHT22;2376;53.544;10.226;2023-12-28T01:16:03;7.50;99.90
4725;DHT22;2376;53.544;10.226;2023-12-28T01:18:30;7.50;99.90
4725;DHT22;2376;53.544;10.226;2023-12-28T01:20:57;7.50;99.90
4725;DHT22;2376;53.544;10.226;2023-12-28T01:23:23;7.50;99.90
4725;DHT22;2376;53.544;10.226;2023-12-28T01:25:50;7.60;99.90
4725;DHT22;2376;53.544;10.226;2023-12-28T01:28:18;7.50;99.90
4725;DHT22;2376;53.544;10.226;2023-12-28T01:30:44;7.50;99.90
4725;DHT22;2376;53.544;10.226;2023-12-28T01:33:11;7.50;99.90
4725;DHT22;2376;53.544;10.226;2023-12-28T01:35:38;7.60;99.90
4725;DHT22;2376;53.544;10.226;2023-12-28T01:38:04;7.60;99.90
4725;DHT22;2376;53.544;10.226;2023-12-28T01:40:31;7.60;99.90
4725;DHT22;2376;53.544;10.226;2023-12-28T01:42:58;7.60;99.90
4725;DHT22;2376;53.544;10.226;2023-12-28T01:45:26;7.60;99.90
4725;DHT22;2376;53.544;10.226;2023-12-28T01:47:53;7.60;99.90
4725;DHT22;2376;53.544;10.226;2023-12-28T01:50:23;7.60;99.90
4725;DHT22;2376;53.544;10.226;2023-12-28T01:52:52;7.60;99.90
4725;DHT22;2376;53.544;10.226;2023-12-28T01:55:19;7.70;99.90
4725;DHT22;2376;53.544;10.226;2023-12-28T01:57:53;7.70;99.90
4725;DHT22;2376;53.544;10.226;2023-12-28T02:00:21;7.60;99.90
4725;DHT22;2376;53.544;10.226;2023-12-28T02:02:50;7.60;99.90
4725;DHT22;2376;53.544;10.226;2023-12-28T02:05:17;7.70;99.90
4725;DHT22;2376;53.544;10.226;2023-12-28T02:07:45;7.70;99.90
4725;DHT22;2376;53.544;10.226;2023-12-28T02:10:11;7.70;99.90
4725;DHT22;2376;53.544;10.226;2023-12-28T02:12:38;7.70;99.90
4725;DHT22;2376;53.544;10.226;2023-12-28T02:15:05;7.70;99.90
4725;DHT22;2376;53.544;10.226;2023-12-28T02:17:35;7.70;99.90
4725;DHT22;2376;53.544;10.226;2023-12-28T02:20:06;7.80;99.90
4725;DHT22;2376;53.544;10.226;2023-12-28T02:22:34;7.80;99.90
4725;DHT22;2376;53.544;10.226;2023-12-28T02:25:09;7.80;99.90
4725;DHT22;2376;53.544;10.226;2023-12-28T02:27:39;7.80;99.90
4725;DHT22;2376;53.544;10.226;2023-12-28T02:30:08;7.80;99.90
4725;DHT22;2376;53.544;10.226;2023-12-28T02:32:44;7.90;99.90
4725;DHT22;2376;53.544;10.226;2023-12-28T02:35:19;7.90;99.90
4725;DHT22;2376;53.544;10.226;2023-12-28T02:37:51;7.90;99.90
4725;DHT22;2376;53.544;10.226;2023-12-28T02:40:21;7.90;99.90
4725;DHT22;2376;53.544;10.226;2023-12-28T02:42:48;7.90;99.90
4725;DHT22;2376;53.544;10.226;2023-12-28T02:45:15;7.90;99.90
4725;DHT22;2376;53.544;10.226;2023-12-28T02:47:42;8.00;99.90
4725;DHT22;2376;53.544;10.226;2023-12-28T02:50:09;8.00;99.90
4725;DHT22;2376;53.544;10.226;2023-12-28T02:52:36;8.00;99.90
4725;DHT22;2376;53.544;10.226;2023-12-28T02:55:03;8.00;99.90
4725;DHT22;2376;53.544;10.226;2023-12-28T02:57:32;8.00;99.90
4725;DHT22;2376;53.544;10.226;2023-12-28T02:59:58;8.00;99.90
4725;DHT22;2376;53.544;10.226;2023-12-28T03:02:28;8.00;99.90
4725;DHT22;2376;53.544;10.226;2023-12-28T03:04:55;8.00;99.90
4725;DHT22;2376;53.544;10.226;2023-12-28T03:07:21;8.00;99.90
4725;DHT22;2376;53.544;10.226;2023-12-28T03:09:48;8.00;99.90
4725;DHT22;2376;53.544;10.226;2023-12-28T03:12:15;8.00;99.90
4725;DHT22;2376;53.544;10.226;2023-12-28T03:14:43;8.00;99.90
4725;DHT22;2376;53.544;10.226;2023-12-28T03:17:10;8.00;99.90
4725;DHT22;2376;53.544;10.226;2023-12-28T03:19:37;8.00;99.90
4725;DHT22;2376;53.544;10.226;2023-12-28T03:22:04;8.00;99.90
4725;DHT22;2376;53.544;10.226;2023-12-28T03:24:30;8.00;99.90
4725;DHT22;2376;53.544;10.226;2023-12-28T03:26:57;8.00;99.90
4725;DHT22;2376;53.544;10.226;2023-12-28T03:29:24;8.00;99.90
4725;DHT22;2376;53.544;10.226;2023-12-28T03:31:52;8.00;99.90
4725;DHT22;2376;53.544;10.226;2023-12-28T03:34:19;8.00;99.90
4725;DHT22;2376;53.544;10.226;2023-12-28T03:36:45;8.00;99.90
4725;DHT22;2376;53.544;10.226;2023-12-28T03:39:12;8.00;99.90
4725;DHT22;2376;53.544;10.226;2023-12-28T03:41:39;8.00;99.90
4725;DHT22;2376;53.544;10.226;2023-12-28T03:44:05;8.00;99.90
4725;DHT22;2376;53.544;10.226;2023-12-28T03:46:32;8.10;99.90
4725;DHT22;2376;53.544;10.226;2023-12-28T03:49:00;8.10;99.90
4725;DHT22;2376;53.544;10.226;2023-12-28T03:51:27;8.10;99.90
4725;DHT22;2376;53.544;10.226;2023-12-28T03:53:53;8.10;99.90
4725;DHT22;2376;53.544;10.226;2023-12-28T03:56:21;8.10;99.90
4725;DHT22;2376;53.544;10.226;2023-12-28T03:58:48;8.10;99.90
4725;DHT22;2376;53.544;10.226;2023-12-28T04:01:16;8.10;99.90
4725;DHT22;2376;53.544;10.226;2023-12-28T04:03:43;8.10;99.90
4725;DHT22;2376;53.544;10.226;2023-12-28T04:06:11;8.10;99.90
4725;DHT22;2376;53.544;10.226;2023-12-28T04:08:38;8.10;99.90
4725;DHT22;2376;53.544;10.226;2023-12-28T04:11:04;8.10;99.90
4725;DHT22;2376;53.544;10.226;2023-12-28T04:13:31;8.10;99.90
4725;DHT22;2376;53.544;10.226;2023-12-28T04:15:58;8.10;99.90
4725;DHT22;2376;53.544;10.226;2023-12-28T04:18:25;8.00;99.90
4725;DHT22;2376;53.544;10.226;2023-12-28T04:20:52;8.10;99.90
4725;DHT22;2376;53.544;10.226;2023-12-28T04:23:20;8.00;99.90
4725;DHT22;2376;53.544;10.226;2023-12-28T04:25:46;8.00;99.90
4725;DHT22;2376;53.544;10.226;2023-12-28T04:28:13;8.00;99.90
4725;DHT22;2376;53.544;10.226;2023-12-28T04:30:39;8.00;99.90
4725;DHT22;2376;53.544;10.226;2023-12-28T04:33:06;8.00;99.90
4725;DHT22;2376;53.544;10.226;2023-12-28T04:35:33;8.00;99.90
4725;DHT22;2376;53.544;10.226;2023-12-28T04:37:59;7.90;99.90
4725;DHT22;2376;53.544;10.226;2023-12-28T04:40:27;7.90;99.90
4725;DHT22;2376;53.544;10.226;2023-12-28T04:42:55;7.90;99.90
4725;DHT22;2376;53.544;10.226;2023-12-28T04:45:21;7.90;99.90
4725;DHT22;2376;53.544;10.226;2023-12-28T04:47:48;7.90;99.90
4725;DHT22;2376;53.544;10.226;2023-12-28T04:50:15;7.90;99.90
4725;DHT22;2376;53.544;10.226;2023-12-28T04:52:42;7.80;99.90
4725;DHT22;2376;53.544;10.226;2023-12-28T04:55:08;7.80;99.90
4725;DHT22;2376;53.544;10.226;2023-12-28T04:57:36;7.80;99.90
4725;DHT22;2376;53.544;10.226;2023-12-28T05:00:04;7.80;99.90
4725;DHT22;2376;53.544;10.226;2023-12-28T05:02:30;7.80;99.90
4725;DHT22;2376;53.544;10.226;2023-12-28T05:04:57;7.80;99.90
4725;DHT22;2376;53.544;10.226;2023-12-28T05:07:24;7.70;99.90
4725;DHT22;2376;53.544;10.226;2023-12-28T05:09:51;7.70;99.90
4725;DHT22;2376;53.544;10.226;2023-12-28T05:12:18;7.70;99.90
4725;DHT22;2376;53.544;10.226;2023-12-28T05:14:46;7.70;99.90
4725;DHT22;2376;53.544;10.226;2023-12-28T05:17:12;7.70;99.90
4725;DHT22;2376;53.544;10.226;2023-12-28T05:19:40;7.70;99.90
4725;DHT22;2376;53.544;10.226;2023-12-28T05:22:06;7.70;99.90
4725;DHT22;2376;53.544;10.226;2023-12-28T05:24:36;7.70;99.90
4725;DHT22;2376;53.544;10.226;2023-12-28T05:27:03;7.70;99.90
4725;DHT22;2376;53.544;10.226;2023-12-28T05:29:30;7.70;99.90
4725;DHT22;2376;53.544;10.226;2023-12-28T05:31:58;7.70;99.90
4725;DHT22;2376;53.544;10.226;2023-12-28T05:34:24;7.70;99.90
4725;DHT22;2376;53.544;10.226;2023-12-28T05:36:51;7.70;99.90
4725;DHT22;2376;53.544;10.226;2023-12-28T05:39:18;7.70;99.90
4725;DHT22;2376;53.544;10.226;2023-12-28T05:41:45;7.70;99.90
4725;DHT22;2376;53.544;10.226;2023-12-28T05:44:13;7.60;99.90
4725;DHT22;2376;53.544;10.226;2023-12-28T05:46:39;7.70;99.90
4725;DHT22;2376;53.544;10.226;2023-12-28T05:49:08;7.70;99.90
4725;DHT22;2376;53.544;10.226;2023-12-28T05:51:37;7.70;99.90
4725;DHT22;2376;53.544;10.226;2023-12-28T05:54:05;7.70;99.90
4725;DHT22;2376;53.544;10.226;2023-12-28T05:56:31;7.70;99.90
4725;DHT22;2376;53.544;10.226;2023-12-28T05:58:58;7.70;99.90
4725;DHT22;2376;53.544;10.226;2023-12-28T06:01:25;7.70;99.90
4725;DHT22;2376;53.544;10.226;2023-12-28T06:03:52;7.70;99.90
4725;DHT22;2376;53.544;10.226;2023-12-28T06:06:20;7.80;99.90
4725;DHT22;2376;53.544;10.226;2023-12-28T06:08:47;7.80;99.90
4725;DHT22;2376;53.544;10.226;2023-12-28T06:11:14;7.80;99.90
4725;DHT22;2376;53.544;10.226;2023-12-28T06:13:41;7.90;99.90
4725;DHT22;2376;53.544;10.226;2023-12-28T06:16:08;7.90;99.90
4725;DHT22;2376;53.544;10.226;2023-12-28T06:18:35;7.90;99.90
4725;DHT22;2376;53.544;10.226;2023-12-28T06:21:01;7.90;99.90
4725;DHT22;2376;53.544;10.226;2023-12-28T06:23:32;8.00;99.90
4725;DHT22;2376;53.544;10.226;2023-12-28T06:26:04;7.90;99.90
4725;DHT22;2376;53.544;10.226;2023-12-28T06:28:31;8.00;99.90
4725;DHT22;2376;53.544;10.226;2023-12-28T06:30:57;8.00;99.90
4725;DHT22;2376;53.544;10.226;2023-12-28T06:33:26;8.10;99.90
4725;DHT22;2376;53.544;10.226;2023-12-28T06:35:53;8.10;99.90
4725;DHT22;2376;53.544;10.226;2023-12-28T06:38:19;8.10;99.90
4725;DHT22;2376;53.544;10.226;2023-12-28T06:40:47;8.20;99.90
4725;DHT22;2376;53.544;10.226;2023-12-28T06:43:14;8.20;99.90
4725;DHT22;2376;53.544;10.226;2023-12-28T06:45:41;8.30;99.90
4725;DHT22;2376;53.544;10.226;2023-12-28T06:48:07;8.30;99.90
4725;DHT22;2376;53.544;10.226;2023-12-28T06:50:34;8.30;99.90
4725;DHT22;2376;53.544;10.226;2023-12-28T06:53:01;8.40;99.90
4725;DHT22;2376;53.544;10.226;2023-12-28T06:55:28;8.40;99.90
4725;DHT22;2376;53.544;10.226;2023-12-28T06:57:56;8.40;99.90
4725;DHT22;2376;53.544;10.226;2023-12-28T07:00:22;8.50;99.90
4725;DHT22;2376;53.544;10.226;2023-12-28T07:02:49;8.50;99.90
4725;DHT22;2376;53.544;10.226;2023-12-28T07:05:16;8.50;99.90
4725;DHT22;2376;53.544;10.226;2023-12-28T07:07:42;8.60;99.90
4725;DHT22;2376;53.544;10.226;2023-12-28T07:10:09;8.60;99.90
4725;DHT22;2376;53.544;10.226;2023-12-28T07:12:35;8.60;99.90
4725;DHT22;2376;53.544;10.226;2023-12-28T07:15:04;8.70;99.90
4725;DHT22;2376;53.544;10.226;2023-12-28T07:17:31;8.70;99.90
4725;DHT22;2376;53.544;10.226;2023-12-28T07:19:58;8.80;99.90
4725;DHT22;2376;53.544;10.226;2023-12-28T07:22:25;8.80;99.90
4725;DHT22;2376;53.544;10.226;2023-12-28T07:24:52;8.80;99.90
4725;DHT22;2376;53.544;10.226;2023-12-28T07:27:18;8.90;99.90
4725;DHT22;2376;53.544;10.226;2023-12-28T07:29:45;8.90;99.90
4725;DHT22;2376;53.544;10.226;2023-12-28T07:32:13;8.90;99.90
4725;DHT22;2376;53.544;10.226;2023-12-28T07:34:40;8.90;99.90
4725;DHT22;2376;53.544;10.226;2023-12-28T07:37:06;8.90;99.90
4725;DHT22;2376;53.544;10.226;2023-12-28T07:39:33;8.90;99.90
4725;DHT22;2376;53.544;10.226;2023-12-28T07:42:00;8.90;99.90
4725;DHT22;2376;53.544;10.226;2023-12-28T07:44:27;8.90;99.90
4725;DHT22;2376;53.544;10.226;2023-12-28T07:46:53;8.90;99.90
4725;DHT22;2376;53.544;10.226;2023-12-28T07:49:22;8.90;99.90
4725;DHT22;2376;53.544;10.226;2023-12-28T07:51:48;8.90;99.90
4725;DHT22;2376;53.544;10.226;2023-12-28T07:54:15;9.00;99.90
4725;DHT22;2376;53.544;10.226;2023-12-28T07:56:41;9.00;99.90
4725;DHT22;2376;53.544;10.226;2023-12-28T07:59:08;8.90;99.90
4725;DHT22;2376;53.544;10.226;2023-12-28T08:01:35;9.00;99.90
4725;DHT22;2376;53.544;10.226;2023-12-28T08:04:02;9.00;99.90
4725;DHT22;2376;53.544;10.226;2023-12-28T08:06:30;9.00;99.90
4725;DHT22;2376;53.544;10.226;2023-12-28T08:08:58;9.10;99.90
4725;DHT22;2376;53.544;10.226;2023-12-28T08:11:26;9.00;99.90
4725;DHT22;2376;53.544;10.226;2023-12-28T08:13:53;9.00;99.90
4725;DHT22;2376;53.544;10.226;2023-12-28T08:16:19;9.00;99.90
4725;DHT22;2376;53.544;10.226;2023-12-28T08:18:46;9.00;99.90
4725;DHT22;2376;53.544;10.226;2023-12-28T08:21:13;9.10;99.90
4725;DHT22;2376;53.544;10.226;2023-12-28T08:23:41;9.10;99.90
4725;DHT22;2376;53.544;10.226;2023-12-28T08:26:08;9.10;99.90
4725;DHT22;2376;53.544;10.226;2023-12-28T08:28:35;9.10;99.90
4725;DHT22;2376;53.544;10.226;2023-12-28T08:31:02;9.20;99.90
4725;DHT22;2376;53.544;10.226;2023-12-28T08:33:29;9.20;99.90
4725;DHT22;2376;53.544;10.226;2023-12-28T08:35:55;9.20;99.90
4725;DHT22;2376;53.544;10.226;2023-12-28T08:38:22;9.20;99.90
4725;DHT22;2376;53.544;10.226;2023-12-28T08:40:50;9.30;99.90
4725;DHT22;2376;53.544;10.226;2023-12-28T08:43:17;9.30;99.90
4725;DHT22;2376;53.544;10.226;2023-12-28T08:45:44;9.30;99.90
4725;DHT22;2376;53.544;10.226;2023-12-28T08:48:10;9.40;99.90
4725;DHT22;2376;53.544;10.226;2023-12-28T08:50:37;9.40;99.90
4725;DHT22;2376;53.544;10.226;2023-12-28T08:53:04;9.50;99.90
4725;DHT22;2376;53.544;10.226;2023-12-28T08:58:54;9.50;99.90
4725;DHT22;2376;53.544;10.226;2023-12-28T09:01:21;9.60;99.90
4725;DHT22;2376;53.544;10.226;2023-12-28T09:03:48;9.60;99.90
4725;DHT22;2376;53.544;10.226;2023-12-28T09:06:15;9.60;99.90
4725;DHT22;2376;53.544;10.226;2023-12-28T09:08:42;9.60;99.90
4725;DHT22;2376;53.544;10.226;2023-12-28T09:11:10;9.70;99.90
4725;DHT22;2376;53.544;10.226;2023-12-28T09:13:37;9.70;99.90
4725;DHT22;2376;53.544;10.226;2023-12-28T09:16:06;9.70;99.90
4725;DHT22;2376;53.544;10.226;2023-12-28T09:18:34;9.80;99.90
4725;DHT22;2376;53.544;10.226;2023-12-28T09:21:02;9.80;99.90
4725;DHT22;2376;53.544;10.226;2023-12-28T09:23:28;9.80;99.90
4725;DHT22;2376;53.544;10.226;2023-12-28T09:25:56;9.90;99.90
4725;DHT22;2376;53.544;10.226;2023-12-28T09:28:23;9.90;99.90
4725;DHT22;2376;53.544;10.226;2023-12-28T09:30:49;9.90;99.90
4725;DHT22;2376;53.544;10.226;2023-12-28T09:33:17;9.90;99.90
4725;DHT22;2376;53.544;10.226;2023-12-28T09:35:44;10.00;99.90
4725;DHT22;2376;53.544;10.226;2023-12-28T09:38:11;10.00;99.90
4725;DHT22;2376;53.544;10.226;2023-12-28T09:40:38;10.10;99.90
4725;DHT22;2376;53.544;10.226;2023-12-28T09:43:12;10.10;99.90
4725;DHT22;2376;53.544;10.226;2023-12-28T09:45:40;10.20;99.90
4725;DHT22;2376;53.544;10.226;2023-12-28T09:48:07;10.30;99.90
4725;DHT22;2376;53.544;10.226;2023-12-28T09:50:35;10.30;99.90
4725;DHT22;2376;53.544;10.226;2023-12-28T09:53:02;10.30;99.90
4725;DHT22;2376;53.544;10.226;2023-12-28T09:55:29;10.30;99.90
4725;DHT22;2376;53.544;10.226;2023-12-28T09:57:57;10.40;99.90
4725;DHT22;2376;53.544;10.226;2023-12-28T10:00:24;10.40;99.90
4725;DHT22;2376;53.544;10.226;2023-12-28T10:02:51;10.40;99.90
4725;DHT22;2376;53.544;10.226;2023-12-28T10:05:17;10.50;99.90
4725;DHT22;2376;53.544;10.226;2023-12-28T10:07:47;10.50;99.90
4725;DHT22;2376;53.544;10.226;2023-12-28T10:10:14;10.60;99.90
4725;DHT22;2376;53.544;10.226;2023-12-28T10:12:42;10.60;99.90
4725;DHT22;2376;53.544;10.226;2023-12-28T10:15:09;10.60;99.90
4725;DHT22;2376;53.544;10.226;2023-12-28T10:17:35;10.70;99.90
4725;DHT22;2376;53.544;10.226;2023-12-28T10:20:03;10.70;99.90
4725;DHT22;2376;53.544;10.226;2023-12-28T10:22:32;10.60;99.90
4725;DHT22;2376;53.544;10.226;2023-12-28T10:25:02;10.70;99.90
4725;DHT22;2376;53.544;10.226;2023-12-28T10:27:29;10.70;99.90
4725;DHT22;2376;53.544;10.226;2023-12-28T10:29:56;10.70;99.90
4725;DHT22;2376;53.544;10.226;2023-12-28T10:32:23;10.70;99.90
4725;DHT22;2376;53.544;10.226;2023-12-28T10:34:51;10.70;99.90
4725;DHT22;2376;53.544;10.226;2023-12-28T10:37:19;10.70;99.90
4725;DHT22;2376;53.544;10.226;2023-12-28T10:39:47;10.70;99.90
4725;DHT22;2376;53.544;10.226;2023-12-28T10:42:21;10.80;99.90
4725;DHT22;2376;53.544;10.226;2023-12-28T10:44:52;10.80;99.90
4725;DHT22;2376;53.544;10.226;2023-12-28T10:47:21;10.80;99.90
4725;DHT22;2376;53.544;10.226;2023-12-28T10:49:52;10.80;99.90
4725;DHT22;2376;53.544;10.226;2023-12-28T10:52:27;10.80;99.90
4725;DHT22;2376;53.544;10.226;2023-12-28T10:55:00;10.80;99.90
4725;DHT22;2376;53.544;10.226;2023-12-28T10:57:35;10.80;99.90
4725;DHT22;2376;53.544;10.226;2023-12-28T11:00:09;10.80;99.90
4725;DHT22;2376;53.544;10.226;2023-12-28T11:02:39;10.80;99.90
4725;DHT22;2376;53.544;10.226;2023-12-28T11:05:08;10.80;99.90
4725;DHT22;2376;53.544;10.226;2023-12-28T11:07:36;10.80;99.90
4725;DHT22;2376;53.544;10.226;2023-12-28T11:10:05;10.80;99.90
4725;DHT22;2376;53.544;10.226;2023-12-28T11:12:34;10.70;99.90
4725;DHT22;2376;53.544;10.226;2023-12-28T11:15:02;10.80;99.90
4725;DHT22;2376;53.544;10.226;2023-12-28T11:17:30;10.80;99.90
4725;DHT22;2376;53.544;10.226;2023-12-28T11:19:58;10.80;99.90
4725;DHT22;2376;53.544;10.226;2023-12-28T11:22:25;10.80;99.90
4725;DHT22;2376;53.544;10.226;2023-12-28T11:24:52;10.90;99.90
4725;DHT22;2376;53.544;10.226;2023-12-28T11:27:19;10.90;99.90
4725;DHT22;2376;53.544;10.226;2023-12-28T11:29:49;11.00;99.90
4725;DHT22;2376;53.544;10.226;2023-12-28T11:32:17;11.00;99.90
4725;DHT22;2376;53.544;10.226;2023-12-28T11:34:45;10.90;99.90
4725;DHT22;2376;53.544;10.226;2023-12-28T11:37:23;11.00;99.90
4725;DHT22;2376;53.544;10.226;2023-12-28T11:39:50;11.00;99.90
4725;DHT22;2376;53.544;10.226;2023-12-28T11:42:20;11.00;99.90
4725;DHT22;2376;53.544;10.226;2023-12-28T11:44:54;10.90;99.90
4725;DHT22;2376;53.544;10.226;2023-12-28T11:47:21;11.00;99.90
4725;DHT22;2376;53.544;10.226;2023-12-28T11:49:48;11.00;99.90
4725;DHT22;2376;53.544;10.226;2023-12-28T11:52:24;11.00;99.90
4725;DHT22;2376;53.544;10.226;2023-12-28T11:54:51;11.00;99.90
4725;DHT22;2376;53.544;10.226;2023-12-28T11:57:17;11.00;99.90
4725;DHT22;2376;53.544;10.226;2023-12-28T11:59:44;11.00;99.90
4725;DHT22;2376;53.544;10.226;2023-12-28T12:02:12;11.00;99.90
4725;DHT22;2376;53.544;10.226;2023-12-28T12:04:40;11.00;99.90
4725;DHT22;2376;53.544;10.226;2023-12-28T12:07:06;11.00;99.90
4725;DHT22;2376;53.544;10.226;2023-12-28T12:09:33;11.00;99.90
4725;DHT22;2376;53.544;10.226;2023-12-28T12:12:00;11.00;99.90
4725;DHT22;2376;53.544;10.226;2023-12-28T12:14:27;11.00;99.90
4725;DHT22;2376;53.544;10.226;2023-12-28T12:16:55;11.00;99.90
4725;DHT22;2376;53.544;10.226;2023-12-28T12:19:23;10.90;99.90
4725;DHT22;2376;53.544;10.226;2023-12-28T12:21:51;11.00;99.90
4725;DHT22;2376;53.544;10.226;2023-12-28T12:24:18;11.00;99.90
4725;DHT22;2376;53.544;10.226;2023-12-28T12:26:45;11.00;99.90
4725;DHT22;2376;53.544;10.226;2023-12-28T12:29:12;11.10;99.90
4725;DHT22;2376;53.544;10.226;2023-12-28T12:31:40;11.10;99.90
4725;DHT22;2376;53.544;10.226;2023-12-28T12:34:08;11.00;99.90
4725;DHT22;2376;53.544;10.226;2023-12-28T12:36:36;11.10;99.90
4725;DHT22;2376;53.544;10.226;2023-12-28T12:39:03;11.10;99.90
4725;DHT22;2376;53.544;10.226;2023-12-28T12:41:31;11.10;99.90
4725;DHT22;2376;53.544;10.226;2023-12-28T12:43:58;11.10;99.90
4725;DHT22;2376;53.544;10.226;2023-12-28T12:46:26;11.10;99.90
4725;DHT22;2376;53.544;10.226;2023-12-28T12:48:56;11.20;99.90
4725;DHT22;2376;53.544;10.226;2023-12-28T12:51:23;11.20;99.90
4725;DHT22;2376;53.544;10.226;2023-12-28T12:53:56;11.20;99.90
4725;DHT22;2376;53.544;10.226;2023-12-28T12:56:23;11.20;99.90
4725;DHT22;2376;53.544;10.226;2023-12-28T12:58:49;11.20;99.90
4725;DHT22;2376;53.544;10.226;2023-12-28T13:01:16;11.20;99.90
4725;DHT22;2376;53.544;10.226;2023-12-28T13:03:43;11.20;99.90
4725;DHT22;2376;53.544;10.226;2023-12-28T13:06:10;11.20;99.90
4725;DHT22;2376;53.544;10.226;2023-12-28T13:08:36;11.20;99.90
4725;DHT22;2376;53.544;10.226;2023-12-28T13:11:04;11.20;99.90
4725;DHT22;2376;53.544;10.226;2023-12-28T13:13:32;11.20;99.90
4725;DHT22;2376;53.544;10.226;2023-12-28T13:15:59;11.20;99.90
4725;DHT22;2376;53.544;10.226;2023-12-28T13:18:26;11.20;99.90
4725;DHT22;2376;53.544;10.226;2023-12-28T13:20:52;11.20;99.90
4725;DHT22;2376;53.544;10.226;2023-12-28T13:23:19;11.10;99.90
4725;DHT22;2376;53.544;10.226;2023-12-28T13:25:46;11.20;99.90
4725;DHT22;2376;53.544;10.226;2023-12-28T13:28:14;11.20;99.90
4725;DHT22;2376;53.544;10.226;2023-12-28T13:30:40;11.20;99.90
4725;DHT22;2376;53.544;10.226;2023-12-28T13:33:08;11.20;99.90
4725;DHT22;2376;53.544;10.226;2023-12-28T13:35:35;11.20;99.90
4725;DHT22;2376;53.544;10.226;2023-12-28T13:38:01;11.20;99.90
4725;DHT22;2376;53.544;10.226;2023-12-28T13:40:28;11.20;99.90
4725;DHT22;2376;53.544;10.226;2023-12-28T13:42:55;11.20;99.90
4725;DHT22;2376;53.544;10.226;2023-12-28T13:45:23;11.20;99.90
4725;DHT22;2376;53.544;10.226;2023-12-28T13:47:50;11.20;99.90
4725;DHT22;2376;53.544;10.226;2023-12-28T13:50:16;11.20;99.90
4725;DHT22;2376;53.544;10.226;2023-12-28T13:52:45;11.20;99.90
4725;DHT22;2376;53.544;10.226;2023-12-28T13:55:12;11.20;99.90
4725;DHT22;2376;53.544;10.226;2023-12-28T13:57:38;11.20;99.90
4725;DHT22;2376;53.544;10.226;2023-12-28T14:00:07;11.20;99.90
4725;DHT22;2376;53.544;10.226;2023-12-28T14:02:35;11.20;99.90
4725;DHT22;2376;53.544;10.226;2023-12-28T14:05:02;11.20;99.90
4725;DHT22;2376;53.544;10.226;2023-12-28T14:07:28;11.10;99.90
4725;DHT22;2376;53.544;10.226;2023-12-28T14:09:55;11.10;99.90
4725;DHT22;2376;53.544;10.226;2023-12-28T14:12:22;11.00;99.90
4725;DHT22;2376;53.544;10.226;2023-12-28T14:14:49;11.10;99.90
4725;DHT22;2376;53.544;10.226;2023-12-28T14:17:16;11.10;99.90
4725;DHT22;2376;53.544;10.226;2023-12-28T14:19:46;11.00;99.90
4725;DHT22;2376;53.544;10.226;2023-12-28T14:22:14;11.00;99.90
4725;DHT22;2376;53.544;10.226;2023-12-28T14:24:44;11.00;99.90
4725;DHT22;2376;53.544;10.226;2023-12-28T14:27:11;11.00;99.90
4725;DHT22;2376;53.544;10.226;2023-12-28T14:29:39;10.90;99.90
4725;DHT22;2376;53.544;10.226;2023-12-28T14:32:06;10.90;99.90
4725;DHT22;2376;53.544;10.226;2023-12-28T14:34:34;10.90;99.90
4725;DHT22;2376;53.544;10.226;2023-12-28T14:37:02;10.90;99.90
4725;DHT22;2376;53.544;10.226;2023-12-28T14:39:29;10.90;99.90
4725;DHT22;2376;53.544;10.226;2023-12-28T14:41:56;10.90;99.90
4725;DHT22;2376;53.544;10.226;2023-12-28T14:44:28;10.90;99.90
4725;DHT22;2376;53.544;10.226;2023-12-28T14:46:55;10.90;99.90
4725;DHT22;2376;53.544;10.226;2023-12-28T14:49:22;10.90;99.90
4725;DHT22;2376;53.544;10.226;2023-12-28T14:51:49;10.90;99.90
4725;DHT22;2376;53.544;10.226;2023-12-28T14:54:17;10.90;99.90
4725;DHT22;2376;53.544;10.226;2023-12-28T14:56:44;10.90;99.90
4725;DHT22;2376;53.544;10.226;2023-12-28T14:59:11;10.80;99.90
4725;DHT22;2376;53.544;10.226;2023-12-28T15:01:38;10.80;99.90
4725;DHT22;2376;53.544;10.226;2023-12-28T15:04:05;10.90;99.90
4725;DHT22;2376;53.544;10.226;2023-12-28T15:06:32;10.90;99.90
4725;DHT22;2376;53.544;10.226;2023-12-28T15:08:59;10.90;99.90
4725;DHT22;2376;53.544;10.226;2023-12-28T15:11:28;10.90;99.90
4725;DHT22;2376;53.544;10.226;2023-12-28T15:13:55;10.80;99.90
4725;DHT22;2376;53.544;10.226;2023-12-28T15:16:22;10.80;99.90
4725;DHT22;2376;53.544;10.226;2023-12-28T15:18:49;10.80;99.90
4725;DHT22;2376;53.544;10.226;2023-12-28T15:21:16;10.80;99.90
4725;DHT22;2376;53.544;10.226;2023-12-28T15:23:44;10.80;99.90
4725;DHT22;2376;53.544;10.226;2023-12-28T15:26:10;10.80;99.90
4725;DHT22;2376;53.544;10.226;2023-12-28T15:28:38;10.80;99.90
4725;DHT22;2376;53.544;10.226;2023-12-28T15:31:05;10.70;99.90
4725;DHT22;2376;53.544;10.226;2023-12-28T15:33:32;10.80;99.90
4725;DHT22;2376;53.544;10.226;2023-12-28T15:35:58;10.80;99.90
4725;DHT22;2376;53.544;10.226;2023-12-28T15:38:27;10.80;99.90
4725;DHT22;2376;53.544;10.226;2023-12-28T15:40:54;10.80;99.90
4725;DHT22;2376;53.544;10.226;2023-12-28T15:43:21;10.80;99.90
4725;DHT22;2376;53.544;10.226;2023-12-28T15:45:49;10.80;99.90
4725;DHT22;2376;53.544;10.226;2023-12-28T15:48:16;10.80;99.90
4725;DHT22;2376;53.544;10.226;2023-12-28T15:50:42;10.80;99.90
4725;DHT22;2376;53.544;10.226;2023-12-28T15:53:09;10.80;99.90
4725;DHT22;2376;53.544;10.226;2023-12-28T15:55:36;10.80;99.90
4725;DHT22;2376;53.544;10.226;2023-12-28T15:58:04;10.80;99.90